KLND

Hunt Field Airport

Lander, Wyoming, USA
METAR KLND 200653Z AUTO 31003KT 9SM SCT060 OVC090 M20/M23 A2979 RMK AO2 SLP192 T12001228 411561206
Observed Flight Rules
Feb-20 @ 06:53 UTC (26 minutes ago) Visual Flight Rules
Wind Visibility Clouds
310° at 3 knots 9 miles
  • Scattered at 6,000' AGL
  • Overcast at 9,000' AGL
Temperatures Readings
Current -20°C / -4°F
Dewpoint -23°C / -9°F
Humidity 77%
Altimeter 29.79" Hg
Pressure 1019.2 hPa
Elevation 1694
METAR KLND 200653Z AUTO 31003KT 9SM SCT060 OVC090 M20/M23 A2979 RMK AO2 SLP192 T12001228 411561206
Observed Flight Rules
Feb-20 @ 06:53 UTC
(26 minutes ago)
VFR
Wind Visibility
310° at 3 knots 9 miles
Clouds
  • Scattered at 6,000' AGL
  • Overcast at 9,000' AGL
Temperature Dewpoint
-20°C / -4°F -23°C / -9°F
Humidity Altimeter Pressure
77% 29.79" Hg 1019.2 hPa